WetterOnline ( https://www.wetteronline.de )

Wetter aktuell Neustadt i.H.

Aktuelles Wetter: Pelzerhaken/Neustadt i.H. (2m)

6-stündlich | Neueste Meldungen
Ortszeit Temperatur Wetter
Sa, 04.02. 7:00 0.6° C leicht bewölkt
Sa, 04.02. 1:00 3.3° C bedeckt
Fr, 03.02. 19:00 6.5° C Sprühregen
Fr, 03.02. 13:00 8.5° C wolkig
Fr, 03.02. 7:00 7.3° C leichter Regen
Fr, 03.02. 1:00 3.7° C leichter Regen
Do, 02.02. 19:00 3.5° C bedeckt
Do, 02.02. 13:00 5.4° C wolkig
Ortszeit Temperatur Wetter
Sa, 04.02. 7:00 0.6° C leicht bewölkt
Sa, 04.02. 6:40 0.8° C leicht bewölkt
Sa, 04.02. 6:30 1.2° C bewölkt
Sa, 04.02. 6:20 1.2° C bewölkt
Sa, 04.02. 6:10 1.4° C bedeckt
Sa, 04.02. 6:00 1.6° C bedeckt
Sa, 04.02. 5:50 1.6° C bedeckt
Sa, 04.02. 5:30 1.9° C bedeckt
Sa, 04.02. 5:00 1.9° C bedeckt
Sa, 04.02. 4:30 1.9° C bedeckt
Sa, 04.02. 4:00 1.9° C bedeckt
Ortszeit Relative Feuchte Sichtweite
Sa, 04.02. 7:00 89% 50 km
Sa, 04.02. 1:00 79% >70 km
Fr, 03.02. 19:00 84% 7 km
Fr, 03.02. 13:00 66% 19 km
Fr, 03.02. 7:00 95% 3.9 km
Fr, 03.02. 1:00 94% 10 km
Do, 02.02. 19:00 89% 40 km
Do, 02.02. 13:00 73% 45 km
Ortszeit Relative Feuchte Sichtweite
Sa, 04.02. 7:00 89% 50 km
Sa, 04.02. 6:40 88% -
Sa, 04.02. 6:30 88% 50 km
Sa, 04.02. 6:20 88% -
Sa, 04.02. 6:10 86% -
Sa, 04.02. 6:00 87% 50 km
Sa, 04.02. 5:50 87% -
Sa, 04.02. 5:30 85% 50 km
Sa, 04.02. 5:00 85% 60 km
Sa, 04.02. 4:30 83% 50 km
Sa, 04.02. 4:00 83% 45 km
Ortszeit Niederschlagsmenge Niederschlagsart
Sa, 04.02. 7:00 0.3 l/m2 in 12 Std. -
Sa, 04.02. 1:00 0.3 l/m2 in 6 Std. Regen
Fr, 03.02. 19:00 3 l/m2 in 12 Std. Regen
Fr, 03.02. 13:00 2 l/m2 in 6 Std. Regen
Fr, 03.02. 7:00 5 l/m2 in 12 Std. Regen
Fr, 03.02. 1:00 3 l/m2 in 6 Std. Regen
Do, 02.02. 19:00 0.9 l/m2 in 12 Std. -
Do, 02.02. 13:00 0.9 l/m2 in 6 Std. Regen
Ortszeit Niederschlagsmenge Niederschlagsart
Sa, 04.02. 7:00 0.0 l/m2 in 1 Std. -
Sa, 04.02. 6:40 keine Meldung -
Sa, 04.02. 6:30 0.0 l/m2 in 30 Min -
Sa, 04.02. 6:20 keine Meldung -
Sa, 04.02. 6:10 keine Meldung -
Sa, 04.02. 6:00 0.0 l/m2 in 1 Std. -
Sa, 04.02. 5:50 keine Meldung -
Sa, 04.02. 5:30 0.0 l/m2 in 30 Min -
Sa, 04.02. 5:00 0.0 l/m2 in 1 Std. -
Sa, 04.02. 4:30 0.0 l/m2 in 30 Min -
Sa, 04.02. 4:00 0.0 l/m2 in 1 Std. -
Ortszeit Stärke Spitze Richtung
km/h Bft. km/h Grad Sektor
Sa, 04.02. 7:00 7 2 29 360° N
Sa, 04.02. 1:00 20 4 48 30° NO
Fr, 03.02. 19:00 24 4 57 320° NW
Fr, 03.02. 13:00 30 5 65 310° NW
Fr, 03.02. 7:00 18 3 43 280° W
Fr, 03.02. 1:00 29 5 36 200° S
Do, 02.02. 19:00 11 2 25 180° S
Do, 02.02. 13:00 13 3 46 350° N
Ortszeit Stärke Spitze Richtung
km/h Bft. km/h Grad Sektor
Sa, 04.02. 7:00 7 2 11 360° N
Sa, 04.02. 6:40 7 2 - 360° N
Sa, 04.02. 6:30 6 1 11 360° N
Sa, 04.02. 6:20 6 1 - 360° N
Sa, 04.02. 6:10 7 2 - 360° N
Sa, 04.02. 6:00 7 2 18 350° N
Sa, 04.02. 5:50 7 2 - 350° N
Sa, 04.02. 5:30 11 2 18 360° N
Sa, 04.02. 5:00 11 2 14 10° N
Sa, 04.02. 4:30 9 2 15 350° N
Sa, 04.02. 4:00 9 2 15 360° N
Ortszeit Untergrenze Bedeckung Gattung
total tief tief mittel hoch
Sa, 04.02. 7:00 600 m 2/8 2/8 - - -
Sa, 04.02. 1:00 570 m 8/8 8/8 - - -
Fr, 03.02. 19:00 570 m 7/8 7/8 - - -
Fr, 03.02. 13:00 1020 m 5/8 5/8 - - -
Fr, 03.02. 7:00 210 m 7/8 7/8 - - -
Fr, 03.02. 1:00 300 m 8/8 8/8 - - -
Do, 02.02. 19:00 3900 m 8/8 8/8 - - -
Do, 02.02. 13:00 570 m 6/8 2/8 - - -
Ortszeit Bedeckungsgrad in Achtel und Wolkenuntergrenze
Sa, 04.02. 7:00 2(600m)
Sa, 04.02. 6:40 4
Sa, 04.02. 6:30 7(570m)
Sa, 04.02. 6:20 7(570m)
Sa, 04.02. 6:10 8
Sa, 04.02. 6:00 8(600m)
Sa, 04.02. 5:50 8(600m)
Sa, 04.02. 5:30 8(630m)
Sa, 04.02. 5:00 8(630m)
Sa, 04.02. 4:30 8(630m)
Sa, 04.02. 4:00 8(600m)
Ortszeit Luftdruck NN (hPa) Tendenz (hPa in 3 Std.)
Sa, 04.02. 7:00 1035 + 3,4
Sa, 04.02. 1:00 1028 + 5,7
Fr, 03.02. 19:00 1016 + 3,3
Fr, 03.02. 13:00 1011 + 1,9
Fr, 03.02. 7:00 1010 - 3,0
Fr, 03.02. 1:00 1017 - 3,0
Do, 02.02. 19:00 1021 + 1,3
Do, 02.02. 13:00 1019 + 2,8
Ortszeit Luftdruck NN (hPa) Tendenz (hPa in 3 Std.)
Sa, 04.02. 7:00 1035 + 3,4
Sa, 04.02. 6:40 1035 keine Meldung
Sa, 04.02. 6:30 1034 + 3,3
Sa, 04.02. 6:20 1034 keine Meldung
Sa, 04.02. 6:10 1034 keine Meldung
Sa, 04.02. 6:00 1034 + 3,7
Sa, 04.02. 5:50 1034 keine Meldung
Sa, 04.02. 5:30 1034 + 4,1
Sa, 04.02. 5:00 1033 + 3,9
Sa, 04.02. 4:30 1032 + 3,8
Sa, 04.02. 4:00 1031 + 3,7
Ortszeit Schneehöhe (cm)
Sa, 04.02. 7:00 0
Sa, 04.02. 1:00 0
Fr, 03.02. 19:00 0
Fr, 03.02. 13:00 0
Fr, 03.02. 7:00 0
Fr, 03.02. 1:00 0
Do, 02.02. 19:00 0
Do, 02.02. 13:00 0
Ortszeit Schneehöhe (cm)
Sa, 04.02. 7:00 0
Sa, 04.02. 6:40 0
Sa, 04.02. 6:30 0
Sa, 04.02. 6:20 0
Sa, 04.02. 6:10 0
Sa, 04.02. 6:00 0
Sa, 04.02. 5:50 0
Sa, 04.02. 5:30 0
Sa, 04.02. 5:00 0
Sa, 04.02. 4:30 0
Sa, 04.02. 4:00 0
Link zu dieser Seite / Seite empfehlen

Das Wetter in ...